Briefing drone pour Aix-les-bains

Rechercher une autre localisation

Conditions de vol :


Nous sommes le : Jeudi 17 juin 2021
Il est 23:57 UTC (01:57 LT)

Lever de soleil : 03:20 UTC (05:20 LT)
Coucher de soleil : 19:54 UTC (21:54 LT)

Météo

L'essentiel des conditions de vol

VIGILANCE MÉTÉO FRANCE - Savoie (73)
Vigilance Jaune : Orages
CARTE TEMSI
CARTES DES FRONTS
METAR de LFLB
LFLB 162330Z AUTO 21004KT 170V230 CAVOK 22/17 Q1013

Date d'émission: 16/06/2021
Heure d'émission: 23:30 UTC
Vent: 210° (variable du 170° au 230°) pour 4 KT (7 km/h)
Visibilité horizontale: > 10 km
Plafond : Plafond et visibilité OK (CAVOK)
Température: 22 °C
Point de rosée: 17 °C
Humidité: 73%
Pression (QNH): 1013 hPa
TAF de LFLB
LFLB 161901Z 1619/1715 CNL

Conditions prévues :

Heure d'émission : Bulletin éffectué le 16 à 19:00 UTC
Prévision : Valide du 16 a 19:00 UTC au 17 a 15:00 UTC
Nuages : à 0ft (0 m)
WEBCAM POUR AIX-LES-BAINS

Réglementation

Voler en sécurité

CARTES AERONAUTIQUE 1/500.000
CARTES VAC (LFLB)
SUP AIP




Chargement des AIP...
NOTAM (AIX-LES-BAINS + Terrain à proximité / FIR )




Chargement des NOTAMS...
CONTACT PREFECTURE 73


Avertissement : Les données mises à disposition sont indicatives. Oxygène Drone ne pourra être tenu responsable de dégâts causés aux biens et aux personnes.